Acala — ZGFG5 — position and weather

sailwx.info

Track history (hours):
 
Tides and Currents Weather Stations Pressure Air Temp Water Temp Dewpoint Dewpoint Depression Visibility Wind Speed Wind Dir Waves Ship Positions

Acala

Last reported at 2018-Apr-02 04:28 UTC. Time now 2018-Apr-22 02:44 UTC.
Position N 20°38' W 105°22'.
Warning: this ship's position is 19 days out of date.

Length 31 m; draft 3 m.

Type: Pleasure craft. MMSI: 319089900.

Date/timePositionNaut miles runAvg speedWind from/ knotsBaromVisibWave heightAir tempDewpointWater temp
2018-Apr-02 04:28N 20°38' W 105°22'4 9.1
2018-Apr-02 04:00N 20°38' W 105°18'3 5.4
2018-Apr-02 03:28N 20°39' W 105°15'0 0.3
2018-Apr-02 02:19N 20°40' W 105°15'0 0.0
2018-Apr-01 23:33N 20°40' W 105°15'0 0.7
2018-Apr-01 23:25N 20°40' W 105°15'0 0.0
2018-Apr-01 22:43N 20°40' W 105°15'0 0.0
2018-Apr-01 22:19N 20°40' W 105°15'0 0.0
2018-Apr-01 21:49N 20°40' W 105°15'0 0.0
2018-Apr-01 21:25N 20°40' W 105°15'0 0.0
2018-Apr-01 20:49N 20°40' W 105°15'0 0.0
2018-Apr-01 20:25N 20°40' W 105°15'0 0.0
2018-Apr-01 19:37N 20°40' W 105°15'0 0.0
2018-Apr-01 19:28N 20°40' W 105°15'0 0.0
2018-Apr-01 18:55N 20°40' W 105°15'0 0.0
2018-Apr-01 18:15N 20°40' W 105°15'0 0.0
2018-Apr-01 17:49N 20°40' W 105°15'0 0.0
2018-Apr-01 17:19N 20°40' W 105°15'0 0.0
2018-Apr-01 16:55N 20°40' W 105°15'0 0.0
2018-Apr-01 16:25N 20°40' W 105°15'0 0.0
2018-Apr-01 14:19N 20°40' W 105°15'0 0.0
2018-Apr-01 13:37N 20°40' W 105°15'0 0.0
2018-Apr-01 13:25N 20°40' W 105°15'0 0.0
2018-Apr-01 11:31N 20°40' W 105°15'0 0.1
2018-Apr-01 11:25N 20°40' W 105°15'0 0.0
2018-Apr-01 10:55N 20°40' W 105°15'0 0.0
2018-Apr-01 07:49N 20°40' W 105°15'0 0.0
2018-Apr-01 04:55N 20°40' W 105°15'0 0.0
2018-Apr-01 02:22N 20°40' W 105°15'0 0.0
2018-Mar-31 23:49N 20°40' W 105°15'0 0.0
2018-Mar-31 23:19N 20°40' W 105°15'0 0.0
2018-Mar-31 22:55N 20°40' W 105°15'0 0.0
2018-Mar-31 22:07N 20°40' W 105°15'0 0.0
2018-Mar-31 21:37N 20°40' W 105°15'0 0.0
2018-Mar-31 21:13N 20°40' W 105°15'0 0.0
2018-Mar-31 20:55N 20°40' W 105°15'0 0.0
2018-Mar-31 20:25N 20°40' W 105°15'0 0.0
2018-Mar-31 19:55N 20°40' W 105°15'0 0.0
2018-Mar-31 19:25N 20°40' W 105°15'0 0.0
2018-Mar-31 18:46N 20°40' W 105°15'0 0.0
2018-Mar-31 18:28N 20°40' W 105°15'0 0.0
2018-Mar-31 17:49N 20°40' W 105°15'0 0.0
2018-Mar-31 17:25N 20°40' W 105°15'0 0.0
2018-Mar-31 16:19N 20°40' W 105°15'0 0.0
2018-Mar-31 10:43N 20°40' W 105°15'0 0.0
2018-Mar-31 04:01N 20°40' W 105°15'0 0.0
2018-Mar-31 03:49N 20°40' W 105°15'0 0.0
2018-Mar-31 03:07N 20°40' W 105°15'0 0.0
2018-Mar-30 04:58N 20°40' W 105°15'0 0.0
2018-Mar-30 04:28N 20°40' W 105°15'0 0.0
2018-Mar-30 03:52N 20°40' W 105°15'0 0.0
2018-Mar-30 03:16N 20°40' W 105°15'0 0.0
2018-Mar-29 13:21N 20°40' W 105°15'0 0.0
2018-Mar-29 11:46N 20°40' W 105°15'0 0.0
2018-Mar-29 11:21N 20°40' W 105°15'0 0.0
2018-Mar-29 10:58N 20°40' W 105°15'0 0.0
2018-Mar-29 10:28N 20°40' W 105°15'0 0.0
2018-Mar-29 09:57N 20°40' W 105°15'0 0.0
2018-Mar-29 09:15N 20°40' W 105°15'0 0.0
2018-Mar-29 08:57N 20°40' W 105°15'0 0.0
2018-Mar-29 08:27N 20°40' W 105°15'0 0.0
2018-Mar-29 00:10N 20°40' W 105°15'0 0.0
2018-Mar-29 00:00N 20°40' W 105°15'0 0.0
2018-Mar-28 19:15N 20°40' W 105°15'0 0.0
2018-Mar-28 18:57N 20°40' W 105°15'0 0.0
2018-Mar-28 16:30N 20°40' W 105°15'0 0.0
2018-Mar-28 16:00N 20°40' W 105°15'0 0.0
2018-Mar-28 11:09N 20°40' W 105°15'0 0.0
2018-Mar-28 10:57N 20°40' W 105°15'0 0.0
2018-Mar-28 10:27N 20°40' W 105°15'0 0.0
2018-Mar-28 09:57N 20°40' W 105°15'0 0.0
2018-Mar-28 09:27N 20°40' W 105°15'0 0.0
2018-Mar-28 08:15N 20°40' W 105°15'0 0.0
2018-Mar-28 02:37N 20°40' W 105°15'0 0.9
2018-Mar-28 02:30N 20°40' W 105°15'1 1.7
2018-Mar-28 02:01N 20°39' W 105°15'4 8.4
2018-Mar-28 01:30N 20°37' W 105°19'4 2.0
2018-Mar-27 23:24N 20°33' W 105°21'4 0.5
2018-Mar-27 15:04N 20°31' W 105°24'0 4.5
2018-Mar-27 14:58N 20°31' W 105°24'3 4.8
2018-Mar-27 14:24N 20°31' W 105°27'  
Track history (hours):
 
Tides and Currents Weather Stations Pressure Air Temp Water Temp Dewpoint Dewpoint Depression Visibility Wind Speed Wind Dir Waves Ship Positions

Acala

Last reported at 2018-Apr-02 04:28 UTC. Time now 2018-Apr-22 02:44 UTC.
Position N 20°38' W 105°22'.
Warning: this ship's position is 19 days out of date.

Length 31 m; draft 3 m.

Type: Pleasure craft. MMSI: 319089900.

Date/timePositionNaut miles runAvg speedWind from/ knotsBaromVisibWave heightAir tempDewpointWater temp
2018-Apr-02 04:28N 20°38' W 105°22'4 9.1
2018-Apr-02 04:00N 20°38' W 105°18'3 5.4
2018-Apr-02 03:28N 20°39' W 105°15'0 0.3
2018-Apr-02 02:19N 20°40' W 105°15'0 0.0
2018-Apr-01 23:33N 20°40' W 105°15'0 0.7
2018-Apr-01 23:25N 20°40' W 105°15'0 0.0
2018-Apr-01 22:43N 20°40' W 105°15'0 0.0
2018-Apr-01 22:19N 20°40' W 105°15'0 0.0
2018-Apr-01 21:49N 20°40' W 105°15'0 0.0
2018-Apr-01 21:25N 20°40' W 105°15'0 0.0
2018-Apr-01 20:49N 20°40' W 105°15'0 0.0
2018-Apr-01 20:25N 20°40' W 105°15'0 0.0
2018-Apr-01 19:37N 20°40' W 105°15'0 0.0
2018-Apr-01 19:28N 20°40' W 105°15'0 0.0
2018-Apr-01 18:55N 20°40' W 105°15'0 0.0
2018-Apr-01 18:15N 20°40' W 105°15'0 0.0
2018-Apr-01 17:49N 20°40' W 105°15'0 0.0
2018-Apr-01 17:19N 20°40' W 105°15'0 0.0
2018-Apr-01 16:55N 20°40' W 105°15'0 0.0
2018-Apr-01 16:25N 20°40' W 105°15'0 0.0
2018-Apr-01 14:19N 20°40' W 105°15'0 0.0
2018-Apr-01 13:37N 20°40' W 105°15'0 0.0
2018-Apr-01 13:25N 20°40' W 105°15'0 0.0
2018-Apr-01 11:31N 20°40' W 105°15'0 0.1
2018-Apr-01 11:25N 20°40' W 105°15'0 0.0
2018-Apr-01 10:55N 20°40' W 105°15'0 0.0
2018-Apr-01 07:49N 20°40' W 105°15'0 0.0
2018-Apr-01 04:55N 20°40' W 105°15'0 0.0
2018-Apr-01 02:22N 20°40' W 105°15'0 0.0
2018-Mar-31 23:49N 20°40' W 105°15'0 0.0
2018-Mar-31 23:19N 20°40' W 105°15'0 0.0
2018-Mar-31 22:55N 20°40' W 105°15'0 0.0
2018-Mar-31 22:07N 20°40' W 105°15'0 0.0
2018-Mar-31 21:37N 20°40' W 105°15'0 0.0
2018-Mar-31 21:13N 20°40' W 105°15'0 0.0
2018-Mar-31 20:55N 20°40' W 105°15'0 0.0
2018-Mar-31 20:25N 20°40' W 105°15'0 0.0
2018-Mar-31 19:55N 20°40' W 105°15'0 0.0
2018-Mar-31 19:25N 20°40' W 105°15'0 0.0
2018-Mar-31 18:46N 20°40' W 105°15'0 0.0
2018-Mar-31 18:28N 20°40' W 105°15'0 0.0
2018-Mar-31 17:49N 20°40' W 105°15'0 0.0
2018-Mar-31 17:25N 20°40' W 105°15'0 0.0
2018-Mar-31 16:19N 20°40' W 105°15'0 0.0
2018-Mar-31 10:43N 20°40' W 105°15'0 0.0
2018-Mar-31 04:01N 20°40' W 105°15'0 0.0
2018-Mar-31 03:49N 20°40' W 105°15'0 0.0
2018-Mar-31 03:07N 20°40' W 105°15'0 0.0
2018-Mar-30 04:58N 20°40' W 105°15'0 0.0
2018-Mar-30 04:28N 20°40' W 105°15'0 0.0
2018-Mar-30 03:52N 20°40' W 105°15'0 0.0
2018-Mar-30 03:16N 20°40' W 105°15'0 0.0
2018-Mar-29 13:21N 20°40' W 105°15'0 0.0
2018-Mar-29 11:46N 20°40' W 105°15'0 0.0
2018-Mar-29 11:21N 20°40' W 105°15'0 0.0
2018-Mar-29 10:58N 20°40' W 105°15'0 0.0
2018-Mar-29 10:28N 20°40' W 105°15'0 0.0
2018-Mar-29 09:57N 20°40' W 105°15'0 0.0
2018-Mar-29 09:15N 20°40' W 105°15'0 0.0
2018-Mar-29 08:57N 20°40' W 105°15'0 0.0
2018-Mar-29 08:27N 20°40' W 105°15'0 0.0
2018-Mar-29 00:10N 20°40' W 105°15'0 0.0
2018-Mar-29 00:00N 20°40' W 105°15'0 0.0
2018-Mar-28 19:15N 20°40' W 105°15'0 0.0
2018-Mar-28 18:57N 20°40' W 105°15'0 0.0
2018-Mar-28 16:30N 20°40' W 105°15'0 0.0
2018-Mar-28 16:00N 20°40' W 105°15'0 0.0
2018-Mar-28 11:09N 20°40' W 105°15'0 0.0
2018-Mar-28 10:57N 20°40' W 105°15'0 0.0
2018-Mar-28 10:27N 20°40' W 105°15'0 0.0
2018-Mar-28 09:57N 20°40' W 105°15'0 0.0
2018-Mar-28 09:27N 20°40' W 105°15'0 0.0
2018-Mar-28 08:15N 20°40' W 105°15'0 0.0
2018-Mar-28 02:37N 20°40' W 105°15'0 0.9
2018-Mar-28 02:30N 20°40' W 105°15'1 1.7
2018-Mar-28 02:01N 20°39' W 105°15'4 8.4
2018-Mar-28 01:30N 20°37' W 105°19'4 2.0
2018-Mar-27 23:24N 20°33' W 105°21'4 0.5
2018-Mar-27 15:04N 20°31' W 105°24'0 4.5
2018-Mar-27 14:58N 20°31' W 105°24'3 4.8
2018-Mar-27 14:24N 20°31' W 105°27'  

Dump ship's entire track history